createdAt,value
2022-12-11T00:21:47.000Z,95.47
2022-12-11T00:21:47.000Z,95.36
2022-12-11T00:22:47.000Z,95.57
2022-12-11T00:23:47.000Z,95.78
2022-12-11T00:57:34.000Z,97.47
2022-12-11T00:57:34.000Z,97.67
2022-12-11T00:58:34.000Z,97.67
2022-12-11T00:59:34.000Z,97.67
2022-12-11T01:00:34.000Z,97.47
2022-12-11T01:01:34.000Z,97.25
2022-12-11T01:02:34.000Z,97.36
2022-12-11T01:03:34.000Z,97.47
2022-12-11T01:04:34.000Z,97.47
2022-12-11T01:05:34.000Z,97.67
2022-12-11T01:24:27.000Z,97.25
2022-12-11T01:24:27.000Z,97.05
2022-12-11T01:25:27.000Z,96.83
2022-12-11T01:26:27.000Z,96.67
2022-12-11T01:39:03.000Z,96.94
2022-12-11T01:39:03.000Z,96.94
2022-12-11T01:40:03.000Z,97.05
2022-12-11T01:41:03.000Z,97.15
2022-12-11T01:42:03.000Z,97.25
2022-12-11T01:43:03.000Z,97.36
2022-12-11T01:44:03.000Z,97.25
2022-12-11T01:45:03.000Z,96.94
2022-12-11T01:46:03.000Z,96.94
2022-12-11T01:47:03.000Z,97.05
2022-12-11T01:54:20.000Z,96.88
2022-12-11T01:54:20.000Z,96.83
2022-12-11T01:55:20.000Z,96.83
2022-12-11T01:56:20.000Z,96.83
2022-12-11T01:57:20.000Z,96.73
2022-12-11T02:37:26.000Z,96.73
2022-12-11T02:37:26.000Z,96.56
2022-12-11T02:38:26.000Z,96.73
2022-12-11T02:39:26.000Z,96.88
2022-12-11T02:46:45.000Z,94.67
2022-12-11T02:46:45.000Z,95.30
2022-12-11T02:47:45.000Z,94.46
2022-12-11T02:48:45.000Z,94.04
2022-12-11T02:49:45.000Z,93.51
2022-12-11T03:28:50.000Z,88.35
2022-12-11T03:28:50.000Z,88.25
2022-12-11T03:29:50.000Z,88.67
2022-12-11T03:30:50.000Z,88.99
2022-12-11T03:31:50.000Z,88.99
2022-12-11T03:39:07.000Z,88.25
2022-12-11T03:39:07.000Z,87.73
2022-12-11T03:40:07.000Z,88.04
2022-12-11T03:41:07.000Z,87.20
2022-12-11T03:42:07.000Z,86.99
2022-12-11T03:55:43.000Z,87.73
2022-12-11T03:55:43.000Z,87.41
2022-12-11T03:56:43.000Z,88.25
2022-12-11T03:57:43.000Z,88.57
2022-12-11T04:05:01.000Z,88.40
2022-12-11T04:05:01.000Z,87.87
2022-12-11T04:06:01.000Z,88.78
2022-12-11T04:07:01.000Z,88.29
2022-12-11T04:08:01.000Z,87.03
2022-12-11T04:09:01.000Z,87.13
2022-12-11T04:10:01.000Z,87.87
2022-12-11T04:11:01.000Z,86.93
2022-12-11T04:12:01.000Z,86.61
2022-12-11T04:13:01.000Z,87.45
2022-12-11T04:14:01.000Z,87.35
2022-12-11T04:15:01.000Z,87.76
2022-12-11T04:16:01.000Z,88.29
2022-12-11T04:17:01.000Z,88.50
2022-12-11T04:18:01.000Z,89.14
2022-12-11T04:19:01.000Z,89.24
2022-12-11T04:20:01.000Z,88.40
2022-12-11T04:21:01.000Z,88.29
2022-12-11T04:22:01.000Z,87.66
2022-12-11T04:23:01.000Z,87.76
2022-12-11T04:30:19.000Z,86.40
2022-12-11T04:30:19.000Z,86.61
2022-12-11T04:31:19.000Z,86.93
2022-12-11T04:32:19.000Z,87.24
2022-12-11T04:33:19.000Z,86.61
2022-12-11T04:41:37.000Z,87.98
2022-12-11T04:41:37.000Z,88.08
2022-12-11T04:42:37.000Z,87.76
2022-12-11T04:43:37.000Z,88.08
2022-12-11T04:44:37.000Z,87.55
2022-12-11T04:45:37.000Z,87.24
2022-12-11T04:46:37.000Z,86.82
2022-12-11T04:47:37.000Z,86.82
2022-12-11T04:48:37.000Z,86.61
2022-12-11T05:35:01.000Z,85.70
2022-12-11T05:35:01.000Z,86.33
2022-12-11T05:36:01.000Z,85.17
2022-12-11T05:37:01.000Z,85.60
2022-12-11T05:38:01.000Z,86.22
2022-12-11T05:39:01.000Z,86.12
2022-12-11T05:40:01.000Z,85.28
2022-12-11T05:41:01.000Z,85.49
2022-12-11T05:42:01.000Z,85.28
2022-12-11T05:43:01.000Z,85.49
2022-12-11T05:44:01.000Z,86.12
2022-12-11T05:45:01.000Z,86.22
2022-12-11T05:46:01.000Z,86.12
2022-12-11T05:47:01.000Z,86.22
2022-12-11T05:48:01.000Z,87.28
2022-12-11T05:49:01.000Z,87.91
2022-12-11T05:50:01.000Z,87.70
2022-12-11T05:51:01.000Z,87.07
2022-12-11T05:52:01.000Z,87.18
2022-12-11T05:53:01.000Z,87.81
2022-12-11T05:54:01.000Z,87.81
2022-12-11T05:55:01.000Z,87.38
2022-12-11T05:56:01.000Z,87.60
2022-12-11T05:57:01.000Z,88.02
2022-12-11T05:58:01.000Z,88.02
2022-12-11T05:59:01.000Z,87.70
2022-12-11T06:00:01.000Z,88.33
2022-12-11T06:01:01.000Z,88.75
2022-12-11T06:02:01.000Z,88.44
2022-12-11T06:03:01.000Z,88.54
2022-12-11T06:04:01.000Z,88.86
2022-12-11T06:05:01.000Z,88.86
2022-12-11T06:06:01.000Z,88.75
2022-12-11T06:07:01.000Z,88.44
2022-12-11T06:08:01.000Z,88.33
2022-12-11T06:09:01.000Z,88.54
2022-12-11T06:10:01.000Z,88.86
2022-12-11T06:11:01.000Z,88.75
2022-12-11T06:12:01.000Z,88.23
2022-12-11T06:13:01.000Z,87.18
2022-12-11T06:14:01.000Z,86.65
2022-12-11T06:15:01.000Z,87.38
2022-12-11T06:16:01.000Z,87.28
2022-12-11T06:17:01.000Z,87.49
2022-12-11T06:18:01.000Z,87.70
2022-12-11T06:19:01.000Z,87.70
2022-12-11T06:20:01.000Z,87.60
2022-12-11T06:21:01.000Z,88.02
2022-12-11T06:22:01.000Z,88.02
2022-12-11T06:23:01.000Z,88.33
2022-12-11T06:24:01.000Z,88.23
2022-12-11T06:25:01.000Z,88.02
2022-12-11T06:26:01.000Z,88.33
2022-12-11T06:27:01.000Z,88.65
2022-12-11T06:28:01.000Z,88.65
2022-12-11T06:29:01.000Z,88.75
2022-12-11T06:30:01.000Z,88.54
2022-12-11T06:31:01.000Z,89.28
2022-12-11T06:32:01.000Z,88.54
2022-12-11T06:33:01.000Z,87.74
2022-12-11T06:34:01.000Z,87.60
2022-12-11T06:35:01.000Z,87.74
2022-12-11T06:36:01.000Z,87.74
2022-12-11T06:37:01.000Z,87.85
2022-12-11T06:38:01.000Z,87.32
2022-12-11T06:39:01.000Z,87.21
2022-12-11T06:40:01.000Z,87.32
2022-12-11T06:41:01.000Z,87.63
2022-12-11T06:48:18.000Z,89.53
2022-12-11T06:48:18.000Z,89.42
2022-12-11T06:49:18.000Z,89.42
2022-12-11T06:50:18.000Z,89.64
2022-12-11T06:51:18.000Z,89.95
2022-12-11T07:03:54.000Z,89.84
2022-12-11T07:03:54.000Z,89.91
2022-12-11T07:04:54.000Z,89.84
2022-12-11T07:05:54.000Z,89.84
2022-12-11T07:06:54.000Z,89.91
2022-12-11T07:07:54.000Z,90.12
2022-12-11T07:08:54.000Z,89.91
2022-12-11T07:09:54.000Z,89.81
2022-12-11T07:10:54.000Z,89.70
2022-12-11T07:11:54.000Z,89.59
2022-12-11T07:12:54.000Z,89.70
2022-12-11T07:13:54.000Z,90.01
2022-12-11T07:14:54.000Z,90.23
2022-12-11T07:15:54.000Z,90.23
2022-12-11T07:16:54.000Z,90.12
2022-12-11T07:17:54.000Z,90.12
2022-12-11T07:18:54.000Z,90.23
2022-12-11T07:19:54.000Z,90.23
2022-12-11T07:20:54.000Z,90.33
2022-12-11T07:21:54.000Z,90.44
2022-12-11T07:22:54.000Z,90.65
2022-12-11T07:23:54.000Z,90.86
2022-12-11T07:24:54.000Z,91.07
2022-12-11T07:25:54.000Z,91.07
2022-12-11T07:26:54.000Z,91.07
2022-12-11T07:27:54.000Z,91.17
2022-12-11T07:28:54.000Z,91.39
2022-12-11T07:29:54.000Z,91.49
2022-12-11T07:30:54.000Z,91.70
2022-12-11T07:31:54.000Z,91.28
2022-12-11T07:32:54.000Z,91.17
2022-12-11T07:33:54.000Z,91.28
2022-12-11T07:34:54.000Z,91.39
2022-12-11T07:35:54.000Z,91.60
2022-12-11T07:36:54.000Z,91.66
2022-12-11T07:37:54.000Z,91.35
2022-12-11T07:38:54.000Z,91.35
2022-12-11T07:39:54.000Z,91.35
2022-12-11T07:40:54.000Z,91.49
2022-12-11T07:41:54.000Z,91.35
2022-12-11T07:42:54.000Z,91.03
2022-12-11T07:43:54.000Z,90.92
2022-12-11T07:44:54.000Z,90.86
2022-12-11T07:45:54.000Z,90.97
2022-12-11T07:46:54.000Z,90.65
2022-12-11T07:47:54.000Z,90.50
2022-12-11T07:48:54.000Z,90.40
2022-12-11T07:49:54.000Z,90.12
2022-12-11T07:50:54.000Z,89.56
2022-12-11T07:51:54.000Z,89.49
2022-12-11T07:52:54.000Z,89.56
2022-12-11T07:53:54.000Z,89.76
2022-12-11T07:54:54.000Z,88.86
2022-12-11T07:55:54.000Z,88.02
2022-12-11T07:56:54.000Z,88.23
2022-12-11T07:57:54.000Z,88.65
2022-12-11T07:58:54.000Z,88.50
2022-12-11T07:59:54.000Z,88.29
2022-12-11T08:00:54.000Z,88.40
2022-12-11T08:01:54.000Z,88.50
2022-12-11T08:02:54.000Z,88.71
2022-12-11T08:03:54.000Z,89.03
2022-12-11T08:04:54.000Z,89.03
2022-12-11T08:05:54.000Z,89.03
2022-12-11T08:06:54.000Z,89.14
2022-12-11T08:07:54.000Z,88.92
2022-12-11T08:08:54.000Z,89.03
2022-12-11T08:09:54.000Z,89.24
2022-12-11T08:10:54.000Z,89.56
2022-12-11T08:11:54.000Z,89.98
2022-12-11T08:12:54.000Z,90.08
2022-12-11T08:13:54.000Z,89.34
2022-12-11T08:14:54.000Z,89.30
2022-12-11T08:15:54.000Z,89.51
2022-12-11T08:16:54.000Z,89.83
2022-12-11T08:17:54.000Z,90.04
2022-12-11T08:18:54.000Z,90.04
2022-12-11T08:19:54.000Z,90.14
2022-12-11T08:20:54.000Z,90.14
2022-12-11T08:21:54.000Z,89.94
2022-12-11T08:22:54.000Z,89.72
2022-12-11T08:23:54.000Z,89.30
2022-12-11T08:24:54.000Z,88.89
2022-12-11T08:25:54.000Z,87.93
2022-12-11T08:26:54.000Z,87.83
2022-12-11T08:27:54.000Z,87.30
2022-12-11T08:28:54.000Z,87.52
2022-12-11T08:29:54.000Z,87.98
2022-12-11T08:30:54.000Z,87.55
2022-12-11T08:31:54.000Z,87.13
2022-12-11T08:32:54.000Z,87.41
2022-12-11T08:33:54.000Z,88.18
2022-12-11T08:34:54.000Z,88.67
2022-12-11T08:35:54.000Z,88.99
2022-12-11T08:36:54.000Z,88.57
2022-12-11T08:37:54.000Z,86.88
2022-12-11T08:38:54.000Z,86.36
2022-12-11T08:39:54.000Z,86.99
2022-12-11T08:40:54.000Z,87.41
2022-12-11T08:41:54.000Z,86.78
2022-12-11T08:42:54.000Z,85.73
2022-12-11T08:43:54.000Z,85.20
2022-12-11T08:44:54.000Z,85.52
2022-12-11T08:45:54.000Z,85.62
2022-12-11T08:46:54.000Z,85.94
2022-12-11T08:47:54.000Z,86.46
2022-12-11T08:48:54.000Z,87.10
2022-12-11T08:49:54.000Z,87.73
2022-12-11T08:50:54.000Z,87.83
2022-12-11T08:51:54.000Z,87.83
2022-12-11T08:52:54.000Z,87.73
2022-12-11T08:53:54.000Z,87.41
2022-12-11T08:54:54.000Z,87.20
2022-12-11T08:55:54.000Z,87.62
2022-12-11T08:56:54.000Z,88.15
2022-12-11T08:57:54.000Z,88.53
2022-12-11T08:58:54.000Z,88.00
2022-12-11T08:59:54.000Z,87.16
2022-12-11T09:00:54.000Z,87.05
2022-12-11T09:01:54.000Z,87.16
2022-12-11T09:02:54.000Z,87.27
2022-12-11T09:03:54.000Z,87.58
2022-12-11T09:04:54.000Z,87.27
2022-12-11T09:05:54.000Z,86.21
2022-12-11T09:06:54.000Z,86.36
2022-12-11T09:07:54.000Z,86.53
2022-12-11T09:08:54.000Z,87.27
2022-12-11T09:09:54.000Z,87.52
2022-12-11T09:10:54.000Z,87.58
2022-12-11T09:11:54.000Z,87.41
2022-12-11T09:12:54.000Z,87.41
2022-12-11T09:13:54.000Z,87.52
2022-12-11T09:14:53.000Z,87.93
2022-12-11T09:15:53.000Z,87.27
2022-12-11T09:16:53.000Z,87.37
2022-12-11T09:17:53.000Z,87.52
2022-12-11T09:18:53.000Z,87.05
2022-12-11T09:19:53.000Z,86.63
2022-12-11T09:20:53.000Z,86.63
2022-12-11T09:21:53.000Z,86.53
2022-12-11T09:22:53.000Z,87.37
2022-12-11T09:23:53.000Z,87.16
2022-12-11T09:24:53.000Z,86.95
2022-12-11T09:25:53.000Z,86.43
2022-12-11T09:26:53.000Z,86.11
2022-12-11T09:27:53.000Z,86.11
2022-12-11T09:28:53.000Z,86.00
2022-12-11T09:29:53.000Z,85.69
2022-12-11T09:30:53.000Z,85.90
2022-12-11T09:31:53.000Z,85.69
2022-12-11T09:32:53.000Z,85.48
2022-12-11T09:33:53.000Z,85.55
2022-12-11T09:34:53.000Z,85.86
2022-12-11T09:35:53.000Z,86.07
2022-12-11T09:36:53.000Z,84.91
2022-12-11T09:37:53.000Z,84.91
2022-12-11T09:38:53.000Z,85.44
2022-12-11T09:39:53.000Z,85.33
2022-12-11T09:40:53.000Z,85.65
2022-12-11T09:41:53.000Z,85.86
2022-12-11T09:42:53.000Z,85.96
2022-12-11T09:43:53.000Z,86.70
2022-12-11T09:44:53.000Z,85.96
2022-12-11T09:45:53.000Z,85.13
2022-12-11T09:46:53.000Z,85.86
2022-12-11T09:47:53.000Z,86.91
2022-12-11T09:48:53.000Z,87.23
2022-12-11T09:49:53.000Z,86.07
2022-12-11T09:50:53.000Z,86.38
2022-12-11T09:51:53.000Z,86.38
2022-12-11T09:52:53.000Z,85.96
2022-12-11T09:53:53.000Z,85.75
2022-12-11T09:54:53.000Z,86.35
2022-12-11T09:55:53.000Z,86.66
2022-12-11T09:56:53.000Z,85.50
2022-12-11T09:57:53.000Z,85.72
2022-12-11T09:58:53.000Z,86.35
2022-12-11T09:59:53.000Z,86.77
2022-12-11T10:00:53.000Z,86.77
2022-12-11T10:01:53.000Z,86.98
2022-12-11T10:02:53.000Z,86.87
2022-12-11T10:03:53.000Z,87.71
2022-12-11T10:04:53.000Z,87.60
2022-12-11T10:05:53.000Z,87.44
2022-12-11T10:06:53.000Z,86.49
2022-12-11T10:07:53.000Z,86.18
2022-12-11T10:08:52.000Z,86.38
2022-12-11T10:09:52.000Z,86.49
2022-12-11T10:10:52.000Z,87.02
2022-12-11T10:11:52.000Z,87.54
2022-12-11T10:12:52.000Z,87.65
2022-12-11T10:13:52.000Z,87.54
2022-12-11T10:14:52.000Z,87.54
2022-12-11T10:15:52.000Z,88.07
2022-12-11T10:16:52.000Z,87.85
2022-12-11T10:17:52.000Z,87.75
2022-12-11T10:18:52.000Z,88.49
2022-12-11T10:19:52.000Z,88.59
2022-12-11T10:20:52.000Z,88.59
2022-12-11T10:21:52.000Z,88.21
2022-12-11T10:22:52.000Z,88.49
2022-12-11T10:23:52.000Z,89.22
2022-12-11T10:24:52.000Z,88.59
2022-12-11T10:25:52.000Z,88.74
2022-12-11T10:26:52.000Z,89.05
2022-12-11T10:27:52.000Z,88.74
2022-12-11T10:28:52.000Z,89.37
2022-12-11T10:29:52.000Z,90.21
2022-12-11T10:30:52.000Z,90.53
2022-12-11T10:31:52.000Z,90.31
2022-12-11T10:32:52.000Z,89.69
2022-12-11T10:33:52.000Z,89.69
2022-12-11T10:34:52.000Z,89.69
2022-12-11T10:35:52.000Z,88.74
2022-12-11T10:36:52.000Z,88.35
2022-12-11T10:37:52.000Z,88.95
2022-12-11T10:38:52.000Z,88.99
2022-12-11T10:39:52.000Z,89.30
2022-12-11T10:40:52.000Z,88.35
2022-12-11T10:41:52.000Z,88.15
2022-12-11T10:49:09.000Z,89.58
2022-12-11T10:49:09.000Z,89.37
2022-12-11T10:50:09.000Z,89.54
2022-12-11T10:51:09.000Z,89.01
2022-12-11T10:52:09.000Z,88.59
2022-12-11T10:53:09.000Z,87.85
2022-12-11T10:54:09.000Z,87.75
2022-12-11T10:55:09.000Z,88.42
2022-12-11T10:56:09.000Z,88.91
2022-12-11T10:57:09.000Z,89.54
2022-12-11T11:04:27.000Z,88.70
2022-12-11T11:04:27.000Z,89.32
2022-12-11T11:05:27.000Z,88.49
2022-12-11T11:06:27.000Z,89.01
2022-12-11T11:07:27.000Z,88.49
2022-12-11T11:08:27.000Z,87.68
2022-12-11T11:09:27.000Z,88.10
2022-12-11T11:10:27.000Z,88.53
2022-12-11T11:11:27.000Z,88.32
2022-12-11T11:12:27.000Z,88.42
2022-12-11T11:13:27.000Z,88.53
2022-12-11T11:14:27.000Z,89.12
2022-12-11T11:15:27.000Z,89.32
2022-12-11T11:16:27.000Z,89.43
2022-12-11T11:17:27.000Z,89.32
2022-12-11T11:18:27.000Z,89.43
2022-12-11T11:19:27.000Z,89.22
2022-12-11T11:20:27.000Z,89.22
2022-12-11T11:21:27.000Z,89.01
2022-12-11T11:22:27.000Z,88.49
2022-12-11T11:23:27.000Z,88.38
2022-12-11T11:24:27.000Z,89.43
2022-12-11T11:25:27.000Z,89.75
2022-12-11T11:26:27.000Z,89.12
2022-12-11T11:27:27.000Z,89.32
2022-12-11T11:28:27.000Z,89.43
2022-12-11T11:29:27.000Z,89.75
2022-12-11T11:30:27.000Z,89.75
2022-12-11T11:31:27.000Z,89.75
2022-12-11T11:32:27.000Z,89.54
2022-12-11T11:33:27.000Z,90.00
2022-12-11T11:34:27.000Z,89.89
2022-12-11T11:35:27.000Z,89.37
2022-12-11T11:36:27.000Z,89.58
2022-12-11T11:37:27.000Z,89.79
2022-12-11T11:38:27.000Z,89.89
2022-12-11T11:39:27.000Z,90.11
2022-12-11T11:40:27.000Z,90.21
2022-12-11T11:41:27.000Z,89.75
2022-12-11T11:42:27.000Z,89.05
2022-12-11T11:43:27.000Z,89.32
2022-12-11T11:44:27.000Z,89.75
2022-12-11T11:45:27.000Z,89.75
2022-12-11T11:46:27.000Z,89.75
2022-12-11T11:47:27.000Z,89.64
2022-12-11T11:48:27.000Z,89.54
2022-12-11T11:49:27.000Z,89.79
2022-12-11T11:50:27.000Z,89.79
2022-12-11T11:51:27.000Z,89.47
2022-12-11T11:52:27.000Z,89.47
2022-12-11T11:53:27.000Z,89.26
2022-12-11T11:54:27.000Z,89.69
2022-12-11T11:55:27.000Z,89.89
2022-12-11T11:56:27.000Z,89.96
2022-12-11T11:57:27.000Z,89.89
2022-12-11T11:58:27.000Z,89.86
2022-12-11T11:59:27.000Z,90.06
2022-12-11T12:00:27.000Z,89.86
2022-12-11T12:01:27.000Z,89.86
2022-12-11T12:02:27.000Z,89.64
2022-12-11T12:03:27.000Z,89.86
2022-12-11T12:04:27.000Z,90.17
2022-12-11T12:05:27.000Z,89.86
2022-12-11T12:06:27.000Z,88.80
2022-12-11T12:07:27.000Z,88.28
2022-12-11T12:08:27.000Z,88.80
2022-12-11T12:08:27.000Z,88.80
2022-12-11T12:09:27.000Z,89.22
2022-12-11T12:09:27.000Z,89.22
2022-12-11T12:10:27.000Z,89.43
2022-12-11T12:10:27.000Z,89.43
2022-12-11T12:11:27.000Z,89.86
2022-12-11T12:11:27.000Z,89.86
2022-12-11T12:12:27.000Z,89.64
2022-12-11T12:12:27.000Z,89.64
2022-12-11T12:13:27.000Z,89.89
2022-12-11T12:14:27.000Z,90.21
2022-12-11T12:15:27.000Z,90.69
2022-12-11T12:16:27.000Z,90.21
2022-12-11T12:17:27.000Z,90.11
2022-12-11T12:18:27.000Z,90.11
2022-12-11T12:19:27.000Z,90.31
2022-12-11T12:20:27.000Z,90.63
2022-12-11T12:21:27.000Z,91.11
2022-12-11T12:22:27.000Z,91.64
2022-12-11T12:23:27.000Z,91.64
2022-12-11T12:24:28.000Z,91.58
2022-12-11T12:25:28.000Z,92.00
2022-12-11T12:26:28.000Z,92.00
2022-12-11T12:27:28.000Z,92.10
2022-12-11T12:28:28.000Z,92.21
2022-12-11T12:29:28.000Z,92.52
2022-12-11T12:30:28.000Z,92.84
2022-12-11T12:31:28.000Z,92.94
2022-12-11T12:32:28.000Z,92.63
2022-12-11T12:39:46.000Z,93.68
2022-12-11T12:39:46.000Z,93.57
2022-12-11T12:40:46.000Z,93.89
2022-12-11T12:41:46.000Z,94.21
2022-12-11T12:42:46.000Z,93.79
2022-12-11T12:43:46.000Z,93.26
2022-12-11T12:44:46.000Z,93.47
2022-12-11T12:45:46.000Z,93.30
2022-12-11T12:46:46.000Z,93.37
2022-12-11T12:47:46.000Z,93.68
2022-12-11T12:48:46.000Z,93.47
2022-12-11T12:49:46.000Z,92.94
2022-12-11T12:50:46.000Z,93.26
2022-12-11T12:51:46.000Z,93.57
2022-12-11T12:52:46.000Z,93.26
2022-12-11T12:53:46.000Z,92.63
2022-12-11T12:54:46.000Z,92.21
2022-12-11T12:55:46.000Z,92.52
2022-12-11T12:56:46.000Z,92.63
2022-12-11T12:57:46.000Z,93.05
2022-12-11T12:58:46.000Z,93.26
2022-12-11T12:59:46.000Z,93.22
2022-12-11T13:00:46.000Z,92.80
2022-12-11T13:01:46.000Z,92.58
2022-12-11T13:02:46.000Z,92.16
2022-12-11T13:03:46.000Z,92.06
2022-12-11T13:04:46.000Z,92.27
2022-12-11T13:05:46.000Z,91.96
2022-12-11T13:06:46.000Z,91.53
2022-12-11T13:07:46.000Z,91.47
2022-12-11T13:08:46.000Z,91.47
2022-12-11T13:09:46.000Z,91.68
2022-12-11T13:10:46.000Z,91.78
2022-12-11T13:11:46.000Z,91.68
2022-12-11T13:12:46.000Z,91.68
2022-12-11T13:13:46.000Z,91.64
2022-12-11T13:14:46.000Z,91.26
2022-12-11T13:15:46.000Z,90.42
2022-12-11T13:16:46.000Z,90.42
2022-12-11T13:17:46.000Z,90.53
2022-12-11T13:18:46.000Z,90.94
2022-12-11T13:19:46.000Z,90.94
2022-12-11T13:20:46.000Z,91.05
2022-12-11T13:21:46.000Z,90.73
2022-12-11T13:22:46.000Z,90.31
2022-12-11T13:23:46.000Z,90.00
2022-12-11T13:24:46.000Z,89.69
2022-12-11T13:25:46.000Z,90.00
2022-12-11T13:26:46.000Z,90.21
2022-12-11T13:27:46.000Z,90.42
2022-12-11T13:28:46.000Z,90.63
2022-12-11T13:29:46.000Z,90.73
2022-12-11T13:30:46.000Z,90.80
2022-12-11T13:31:46.000Z,91.16
2022-12-11T13:32:46.000Z,91.26
2022-12-11T13:45:22.000Z,92.42
2022-12-11T13:45:22.000Z,92.84
2022-12-11T13:46:22.000Z,91.78
2022-12-11T13:47:22.000Z,91.68
2022-12-11T13:48:22.000Z,91.93
2022-12-11T13:49:22.000Z,92.25
2022-12-11T13:50:22.000Z,92.57
2022-12-11T13:51:22.000Z,92.77
2022-12-11T13:52:22.000Z,92.57
2022-12-11T13:53:22.000Z,92.25
2022-12-11T13:54:22.000Z,90.78
2022-12-11T13:55:22.000Z,90.56
2022-12-11T13:56:22.000Z,91.09
2022-12-11T13:57:22.000Z,90.92
2022-12-11T13:58:22.000Z,91.13
2022-12-11T13:59:22.000Z,91.55
2022-12-11T14:00:22.000Z,91.97
2022-12-11T14:01:22.000Z,92.19
2022-12-11T14:02:22.000Z,92.40
2022-12-11T14:03:22.000Z,92.71
2022-12-11T14:04:22.000Z,92.71
2022-12-11T14:05:22.000Z,92.40
2022-12-11T14:06:22.000Z,92.50
2022-12-11T14:07:22.000Z,92.82
2022-12-11T14:08:22.000Z,92.82
2022-12-11T14:09:22.000Z,93.03
2022-12-11T14:10:22.000Z,93.13
2022-12-11T14:11:22.000Z,93.24
2022-12-11T14:12:22.000Z,93.24
2022-12-11T14:13:22.000Z,93.34
2022-12-11T14:14:22.000Z,93.55
2022-12-11T14:15:22.000Z,93.55
2022-12-11T14:16:22.000Z,93.87
2022-12-11T14:17:22.000Z,93.98
2022-12-11T14:18:22.000Z,93.87
2022-12-11T14:19:22.000Z,93.87
2022-12-11T14:20:22.000Z,94.08
2022-12-11T14:21:22.000Z,94.40
2022-12-11T14:22:22.000Z,94.92
2022-12-11T14:23:22.000Z,95.24
2022-12-11T14:24:22.000Z,95.13
2022-12-11T14:25:22.000Z,95.24
2022-12-11T14:26:22.000Z,94.92
2022-12-11T14:27:22.000Z,94.82
2022-12-11T14:28:22.000Z,95.03
2022-12-11T14:29:22.000Z,95.24
2022-12-11T14:30:22.000Z,95.03
2022-12-11T14:31:22.000Z,95.03
2022-12-11T14:32:22.000Z,95.24
2022-12-11T14:33:22.000Z,95.55
2022-12-11T14:34:22.000Z,95.55
2022-12-11T14:35:22.000Z,95.55
2022-12-11T14:36:22.000Z,95.55
2022-12-11T14:37:22.000Z,95.55
2022-12-11T14:38:22.000Z,95.24
2022-12-11T14:39:23.000Z,95.03
2022-12-11T14:40:23.000Z,95.07
2022-12-11T14:41:23.000Z,95.24
2022-12-11T14:42:23.000Z,95.28
2022-12-11T14:43:23.000Z,95.49
2022-12-11T14:44:23.000Z,95.60
2022-12-11T14:45:23.000Z,95.60
2022-12-11T14:46:23.000Z,95.60
2022-12-11T14:47:23.000Z,95.70
2022-12-11T14:48:23.000Z,95.97
2022-12-11T14:49:23.000Z,96.19
2022-12-11T14:50:23.000Z,96.50
2022-12-11T14:51:23.000Z,96.61
2022-12-11T14:52:23.000Z,96.39
2022-12-11T14:53:23.000Z,96.39
2022-12-11T14:54:23.000Z,96.39
2022-12-11T14:55:23.000Z,96.50
2022-12-11T14:56:23.000Z,96.61
2022-12-11T14:57:23.000Z,96.81
2022-12-11T14:58:23.000Z,96.92
2022-12-11T14:59:23.000Z,97.03
2022-12-11T15:00:23.000Z,96.92
2022-12-11T15:01:23.000Z,96.55
2022-12-11T15:02:23.000Z,96.55
2022-12-11T15:03:23.000Z,96.65
2022-12-11T15:04:23.000Z,96.65
2022-12-11T15:05:23.000Z,96.65
2022-12-11T15:06:23.000Z,96.65
2022-12-11T15:07:23.000Z,96.55
2022-12-11T15:08:23.000Z,96.55
2022-12-11T15:09:23.000Z,96.75
2022-12-11T15:10:23.000Z,96.97
2022-12-11T15:11:23.000Z,97.17
2022-12-11T15:12:23.000Z,97.28
2022-12-11T15:13:23.000Z,97.39
2022-12-11T15:14:23.000Z,97.28
2022-12-11T15:15:23.000Z,97.39
2022-12-11T15:16:23.000Z,97.28
2022-12-11T15:17:23.000Z,97.28
2022-12-11T15:18:23.000Z,97.39
2022-12-11T15:19:23.000Z,97.60
2022-12-11T15:20:23.000Z,97.60
2022-12-11T15:21:23.000Z,97.71
2022-12-11T15:22:23.000Z,97.71
2022-12-11T15:23:23.000Z,97.81
2022-12-11T15:24:23.000Z,97.91
2022-12-11T15:25:23.000Z,97.60
2022-12-11T15:26:23.000Z,97.49
2022-12-11T15:27:23.000Z,97.71
2022-12-11T15:28:23.000Z,97.71
2022-12-11T15:29:24.000Z,97.60
2022-12-11T15:30:24.000Z,97.49
2022-12-11T15:31:24.000Z,97.49
2022-12-11T15:32:24.000Z,97.28
2022-12-11T15:33:24.000Z,97.28
2022-12-11T15:34:24.000Z,97.39
2022-12-11T15:35:24.000Z,97.60
2022-12-11T15:36:24.000Z,97.71
2022-12-11T15:37:24.000Z,97.81
2022-12-11T15:38:24.000Z,97.91
2022-12-11T15:39:24.000Z,97.91
2022-12-11T15:40:24.000Z,98.02
2022-12-11T15:41:24.000Z,98.13
2022-12-11T15:42:24.000Z,98.02
2022-12-11T15:43:24.000Z,98.02
2022-12-11T15:44:24.000Z,98.02
2022-12-11T15:45:24.000Z,98.13
2022-12-11T15:46:24.000Z,98.02
2022-12-11T15:47:24.000Z,98.02
2022-12-11T15:48:24.000Z,98.02
2022-12-11T15:49:24.000Z,97.91
2022-12-11T15:50:24.000Z,97.85
2022-12-11T15:51:24.000Z,97.33
2022-12-11T15:52:24.000Z,97.01
2022-12-11T15:53:24.000Z,96.80
2022-12-11T15:54:24.000Z,96.48
2022-12-11T15:55:24.000Z,96.59
2022-12-11T15:56:24.000Z,96.59
2022-12-11T15:57:24.000Z,96.06
2022-12-11T15:58:24.000Z,95.85
2022-12-11T15:59:24.000Z,95.64
2022-12-11T16:00:24.000Z,95.53
2022-12-11T16:01:24.000Z,95.75
2022-12-11T16:02:24.000Z,95.85
2022-12-11T16:03:24.000Z,96.06
2022-12-11T16:04:24.000Z,96.27
2022-12-11T16:05:24.000Z,96.37
2022-12-11T16:06:24.000Z,96.37
2022-12-11T16:07:24.000Z,96.59
2022-12-11T16:08:24.000Z,96.69
2022-12-11T16:09:24.000Z,96.91
2022-12-11T16:10:24.000Z,97.01
2022-12-11T16:11:24.000Z,96.80
2022-12-11T16:12:24.000Z,96.48
2022-12-11T16:13:24.000Z,96.48
2022-12-11T16:14:24.000Z,96.69
2022-12-11T16:15:24.000Z,96.91
2022-12-11T16:16:24.000Z,97.11
2022-12-11T16:17:25.000Z,97.33
2022-12-11T16:18:25.000Z,97.53
2022-12-11T16:19:25.000Z,97.64
2022-12-11T16:20:25.000Z,97.75
2022-12-11T16:21:25.000Z,97.85
2022-12-11T16:22:25.000Z,98.07
2022-12-11T16:23:25.000Z,98.17
2022-12-11T16:24:25.000Z,98.27
2022-12-11T16:25:25.000Z,98.27
2022-12-11T16:26:25.000Z,98.38
2022-12-11T16:27:25.000Z,98.49
2022-12-11T16:28:25.000Z,98.69
2022-12-11T16:29:25.000Z,98.80
2022-12-11T16:30:25.000Z,98.91
2022-12-11T16:31:25.000Z,98.91
2022-12-11T16:32:25.000Z,98.80
2022-12-11T16:33:25.000Z,98.91
2022-12-11T16:34:25.000Z,98.91
2022-12-11T16:35:25.000Z,98.91
2022-12-11T16:36:25.000Z,99.01
2022-12-11T16:37:25.000Z,99.01
2022-12-11T16:38:25.000Z,99.11
2022-12-11T16:39:25.000Z,99.22
2022-12-11T16:40:25.000Z,99.33
2022-12-11T16:41:25.000Z,99.33
2022-12-11T16:42:25.000Z,99.33
2022-12-11T16:43:25.000Z,99.33
2022-12-11T16:44:25.000Z,99.22
2022-12-11T16:45:25.000Z,99.22
2022-12-11T16:46:25.000Z,99.43
2022-12-11T16:47:25.000Z,99.54
2022-12-11T16:48:25.000Z,99.54
2022-12-11T16:49:25.000Z,99.75
2022-12-11T16:50:25.000Z,99.70
2022-12-11T16:51:25.000Z,99.70
2022-12-11T16:52:25.000Z,99.54
2022-12-11T16:53:25.000Z,99.33
2022-12-11T16:54:25.000Z,98.91
2022-12-11T16:55:25.000Z,98.59
2022-12-11T16:56:25.000Z,98.07
2022-12-11T16:57:25.000Z,97.96
2022-12-11T16:58:25.000Z,98.17
2022-12-11T16:59:25.000Z,98.07
2022-12-11T17:00:25.000Z,97.96
2022-12-11T17:01:26.000Z,97.85
2022-12-11T17:02:26.000Z,97.96
2022-12-11T17:03:26.000Z,97.96
2022-12-11T17:04:26.000Z,98.17
2022-12-11T17:05:26.000Z,98.27
2022-12-11T17:06:26.000Z,98.49
2022-12-11T17:07:26.000Z,98.59
2022-12-11T17:08:26.000Z,98.49
2022-12-11T17:09:26.000Z,98.49
2022-12-11T17:10:26.000Z,98.59
2022-12-11T17:11:26.000Z,98.69
2022-12-11T17:12:26.000Z,98.80
2022-12-11T17:13:26.000Z,98.91
2022-12-11T17:14:26.000Z,98.91
2022-12-11T17:15:26.000Z,99.11
2022-12-11T17:16:26.000Z,99.11
2022-12-11T17:17:26.000Z,99.22
2022-12-11T17:18:26.000Z,99.11
2022-12-11T17:19:26.000Z,99.01
2022-12-11T17:20:26.000Z,99.01
2022-12-11T17:21:26.000Z,99.01
2022-12-11T17:22:26.000Z,99.11
2022-12-11T17:23:26.000Z,99.22
2022-12-11T17:24:26.000Z,99.22
2022-12-11T17:25:26.000Z,99.33
2022-12-11T17:26:26.000Z,99.33
2022-12-11T17:27:26.000Z,99.22
2022-12-11T17:28:26.000Z,99.22
2022-12-11T17:29:26.000Z,99.22
2022-12-11T17:30:26.000Z,99.11
2022-12-11T17:31:26.000Z,99.22
2022-12-11T17:32:26.000Z,99.22
2022-12-11T17:33:26.000Z,99.22